Beaverton, Michigan
Current Conditions -  °F | °C
As of 10:32 AM on Thursday 23 Oct 2014 (Local Time) from KIKW Reporting Station
Overcast Overcast  
Wind Chill: 37°   Ceiling: 1400
Heat Index: 37°   Visibility: 10mi
Dew Point: 37°   Wind: 0mph
Humidity: 99%   Direction: NA
Pressure: 30.25"   Gusts: NA
Location:  43.88°N, 84.48°W
Report Text: KIKW 231432Z AUTO 00000KT 10SM OVC014 03/03 A3025 RMK AO2 T00300029
Loading
Personal Weather Stations






























Interactive Weather Map
Tropical Storm Tracking
New forecast layout! Learn more

10-Day Weather Forecast

Advertisements
Track Severe Weather on mobile